地図

経路データ

SID SEASON NUMBER BASIN SUBBASIN NAME ISO_TIME NATURE LAT LON WMO_WIND WMO_PRES WMO_AGENCY TRACK_TYPE DIST2LAND LANDFALL IFLAG USA_AGENCY USA_ATCF_ID USA_LAT USA_LON USA_RECORD USA_STATUS USA_WIND USA_PRES USA_SSHS USA_R34_NE USA_R34_SE USA_R34_SW USA_R34_NW USA_R50_NE USA_R50_SE USA_R50_SW USA_R50_NW USA_R64_NE USA_R64_SE USA_R64_SW USA_R64_NW USA_POCI USA_ROCI USA_RMW USA_EYE TOKYO_LAT TOKYO_LON TOKYO_GRADE TOKYO_WIND TOKYO_PRES TOKYO_R50_DIR TOKYO_R50_LONG TOKYO_R50_SHORT TOKYO_R30_DIR TOKYO_R30_LONG TOKYO_R30_SHORT TOKYO_LAND CMA_LAT CMA_LON CMA_CAT CMA_WIND CMA_PRES HKO_LAT HKO_LON HKO_CAT HKO_WIND HKO_PRES NEWDELHI_LAT NEWDELHI_LON NEWDELHI_GRADE NEWDELHI_WIND NEWDELHI_PRES NEWDELHI_CI NEWDELHI_DP NEWDELHI_POCI REUNION_LAT REUNION_LON REUNION_TYPE REUNION_WIND REUNION_PRES REUNION_TNUM REUNION_CI REUNION_RMW REUNION_R34_NE REUNION_R34_SE REUNION_R34_SW REUNION_R34_NW REUNION_R50_NE REUNION_R50_SE REUNION_R50_SW REUNION_R50_NW REUNION_R64_NE REUNION_R64_SE REUNION_R64_SW REUNION_R64_NW BOM_LAT BOM_LON BOM_TYPE BOM_WIND BOM_PRES BOM_TNUM BOM_CI BOM_RMW BOM_R34_NE BOM_R34_SE BOM_R34_SW BOM_R34_NW BOM_R50_NE BOM_R50_SE BOM_R50_SW BOM_R50_NW BOM_R64_NE BOM_R64_SE BOM_R64_SW BOM_R64_NW BOM_ROCI BOM_POCI BOM_EYE BOM_POS_METHOD BOM_PRES_METHOD NADI_LAT NADI_LON NADI_CAT NADI_WIND NADI_PRES WELLINGTON_LAT WELLINGTON_LON WELLINGTON_WIND WELLINGTON_PRES DS824_LAT DS824_LON DS824_STAGE DS824_WIND DS824_PRES TD9636_LAT TD9636_LON TD9636_STAGE TD9636_WIND TD9636_PRES TD9635_LAT TD9635_LON TD9635_WIND TD9635_PRES TD9635_ROCI NEUMANN_LAT NEUMANN_LON NEUMANN_CLASS NEUMANN_WIND NEUMANN_PRES MLC_LAT MLC_LON MLC_CLASS MLC_WIND MLC_PRES USA_GUST BOM_GUST BOM_GUST_PER REUNION_GUST REUNION_GUST_PER USA_SEAHGT USA_SEARAD_NE USA_SEARAD_SE USA_SEARAD_SW USA_SEARAD_NW STORM_SPEED STORM_DIR
1977030S15148 1977 10 SP EA KEITH 1977-01-29 20:00:00 NR -15.2000 148.400 25 1003 bom main 322 322 ______O_______ -1 -15.2000 148.400 20 25 1003 2.00000 45 45 3 276
1977030S15148 1977 10 SP EA KEITH 1977-01-29 21:00:00 NR -15.1939 148.343 main 311 300 ______P_______ -1 -15.1939 148.343 20 25 1002 4 270
1977030S15148 1977 10 SP EA KEITH 1977-01-29 23:00:00 NR -15.2000 148.200 25 1002 bom main 300 300 ______O_______ -1 -15.2000 148.200 20 25 1002 2.00000 45 45 3 261
1977030S15148 1977 10 SP EA KEITH 1977-01-30 00:00:00 TS -15.2202 148.167 main 300 268 O_____P__OO_O_ jtwc_sh SH121977 -15.2000 148.200 40 0 -15.2204 148.100 20 25 1001 -15.3000 148.100 TC 25 1002 -15.2000 148.200 2 40 -15.2000 148.400 TC 25 1002 6 239
1977030S15148 1977 10 SP EA KEITH 1977-01-30 03:00:00 TS -15.4044 147.844 main 257 244 P_____P__PP_P_ SH121977 -15.4551 147.890 42 0 -15.3557 147.733 20 28 998 -15.4202 147.715 TC 30 999 -15.4814 147.932 2 42 -15.3077 148.015 TC 30 999 7 236
1977030S15148 1977 10 SP EA KEITH 1977-01-30 05:00:00 TS -15.5551 147.646 30 997 bom main 231 231 P_____O__PP_P_ SH121977 -15.6201 147.693 44 0 -15.5000 147.500 20 30 997 2.50000 -15.5297 147.493 TC 33 997 -15.6578 147.752 2 44 -15.4212 147.793 TC 33 997 45 45 7 229
1977030S15148 1977 10 SP EA KEITH 1977-01-30 06:00:00 TS -15.6393 147.564 main 231 193 O_____P__OP_O_ jtwc_sh SH121977 -15.7000 147.600 45 0 -15.5959 147.421 20 31 996 -15.6000 147.400 TC 35 997 -15.7401 147.661 2 45 -15.5000 147.700 TC 35 997 7 221
1977030S15148 1977 10 SP EA KEITH 1977-01-30 09:00:00 TS -15.9002 147.331 main 193 178 P_____P__PP_P_ SH121977 -15.9224 147.342 47 0 -15.9231 147.233 20 36 993 -15.8649 147.193 TC 40 994 -15.9538 147.384 2 47 -15.8149 147.493 TC 40 994 7 222
1977030S15148 1977 10 SP EA KEITH 1977-01-30 11:00:00 TS -16.0516 147.183 40 992 bom main 171 162 P_____O__PP_P_ SH121977 -16.0473 147.181 49 0 -16.1000 147.100 30 40 992 3.00000 -16.0342 147.070 TC 43 992 -16.0601 147.196 2 49 -16.0206 147.370 TC 43 992 55 55 6 227
1977030S15148 1977 10 SP EA KEITH 1977-01-30 12:00:00 TS -16.1079 147.103 main 162 131 O_____P__OO_O_ jtwc_sh SH121977 -16.1000 147.100 50 0 -16.1476 147.018 30 40 992 -16.1000 147.000 TC 45 992 -16.1000 147.100 2 50 -16.1000 147.300 TC 45 992 6 249
1977030S15148 1977 10 SP EA KEITH 1977-01-30 15:00:00 TS -16.1874 146.817 main 131 115 P_____P__PP_P_ SH121977 -16.2150 146.842 50 0 -16.2010 146.731 30 40 992 -16.1501 146.685 TC 45 992 -16.1710 146.812 2 50 -16.1726 146.992 TC 45 992 6 257
1977030S15148 1977 10 SP EA KEITH 1977-01-30 17:00:00 TS -16.2168 146.626 40 992 bom main 115 106 P_____O__PP_P_ SH121977 -16.2719 146.678 50 0 -16.2000 146.500 30 40 992 3.00000 -16.1710 146.482 TC 45 992 -16.2007 146.629 2 50 -16.1851 146.788 TC 45 992 55 55 6 260
1977030S15148 1977 10 SP EA KEITH 1977-01-30 18:00:00 TS -16.2337 146.531 main 106 92 O_____P__OP_O_ jtwc_sh SH121977 -16.3000 146.600 50 0 -16.1843 146.341 30 40 992 -16.2000 146.400 TC 45 992 -16.2176 146.545 2 50 -16.2000 146.700 TC 45 992 5 256
1977030S15148 1977 10 SP EA KEITH 1977-01-30 20:00:00 TS -16.2771 146.368 40 992 bom main 92 84 P_____O__PP_P_ SH121977 -16.3286 146.437 50 0 -16.2000 146.100 30 40 992 3.00000 -16.3024 146.285 TC 43 992 -16.2675 146.394 2 50 -16.2353 146.555 TC 43 992 55 55 4 248
1977030S15148 1977 10 SP EA KEITH 1977-01-30 21:00:00 TS -16.3178 146.316 main 84 77 P_____P__PP_P_ SH121977 -16.3475 146.362 50 0 -16.2642 146.093 30 40 992 -16.3749 146.248 TC 42 993 -16.3054 146.331 2 50 -16.2675 146.498 TC 42 993 4 211
1977030S15148 1977 10 SP EA KEITH 1977-01-30 23:00:00 TS -16.4563 146.257 40 994 bom main 69 61 P_____O__PP_P_ SH121977 -16.4267 146.241 50 0 -16.5000 146.200 30 40 994 3.00000 -16.5719 146.206 TC 40 993 -16.4192 146.232 2 50 -16.3933 146.419 TC 40 993 55 55 5 199
1977030S15148 1977 10 SP EA KEITH 1977-01-31 00:00:00 TS -16.5603 146.237 main 54 31 O_____P__OO_O_ jtwc_sh SH121977 -16.5000 146.200 50 0 -16.6617 146.222 30 39 994 -16.7000 146.200 TC 40 994 -16.5000 146.200 2 50 -16.5000 146.400 TC 40 994 9 183
1977030S15148 1977 10 SP EA KEITH 1977-01-31 03:00:00 TS -17.0436 146.225 main 31 15 P_____P__PP_P_ SH121977 -16.8825 146.148 47 0 -17.2852 146.267 30 36 995 -17.2275 146.212 TC 37 995 -16.9213 146.164 2 46 -17.0625 146.412 TC 37 995 10 179
1977030S15148 1977 10 SP EA KEITH 1977-01-31 05:00:00 TS -17.4205 146.261 35 996 bom main 21 21 P_____O__PP_P_ SH121977 -17.2202 146.172 45 0 -17.7000 146.300 30 35 996 2.50000 -17.6180 146.264 TC 35 995 -17.2652 146.189 2 43 -17.4992 146.467 TC 35 995 49 49 11 174
1977030S15148 1977 10 SP EA KEITH 1977-01-31 06:00:00 TS -17.6019 146.290 main 21 21 O_____P__OP_O_ jtwc_sh SH121977 -17.4000 146.200 45 0 -17.8640 146.325 30 35 996 -17.8000 146.300 TC 35 996 -17.4473 146.215 2 42 -17.7000 146.500 TC 35 996 11 169
1977030S15148 1977 10 SP EA KEITH 1977-01-31 09:00:00 TS -18.1035 146.402 main 42 30 P_____P__PP_P_ SH121977 -17.9725 146.320 40 0 -18.2787 146.420 30 35 996 -18.2450 146.435 TC 35 996 -17.9995 146.333 2 38 -18.1525 146.585 TC 35 996 10 166
1977030S15148 1977 10 SP EA KEITH 1977-01-31 11:00:00 TS -18.4016 146.503 35 997 bom main 30 23 P_____O__PP_P_ SH121977 -18.3400 146.436 36 0 -18.5000 146.500 30 35 997 2.50000 -18.4917 146.545 TC 35 996 -18.3438 146.440 2 36 -18.3943 146.658 TC 35 996 49 49 9 162
1977030S15148 1977 10 SP EA KEITH 1977-01-31 12:00:00 TS -18.5315 146.554 main 33 31 O_____P__OO_O_ jtwc_sh SH121977 -18.5000 146.500 35 0 -18.5890 146.527 30 35 997 -18.6000 146.600 TC 35 997 -18.5000 146.500 2 35 -18.5000 146.700 TC 35 997 7 156
1977030S15148 1977 10 SP EA KEITH 1977-01-31 15:00:00 TS -18.8371 146.713 main 38 22 P_____P__PP_P_ SH121977 -18.8450 146.685 32 -1 -18.8150 146.642 30 35 997 -18.8725 146.755 TC 35 997 -18.8889 146.699 2 33 -18.7649 146.820 TC 35 997 7 150
1977030S15148 1977 10 SP EA KEITH 1977-01-31 17:00:00 TS -19.0112 146.846 35 998 bom main 22 15 P_____O__PP_P_ SH121977 -19.0188 146.825 30 -1 -19.0000 146.800 30 35 998 2.50000 -19.0264 146.852 TC 35 997 -19.0920 146.844 2 32 -18.9188 146.930 TC 35 997 49 49 7 143
1977030S15148 1977 10 SP EA KEITH 1977-01-31 18:00:00 TS -19.1035 146.929 main 15 10 O_____P__OP_O_ jtwc_sh SH121977 -19.1000 146.900 30 -1 -19.1379 146.933 30 33 998 -19.1000 146.900 TC 35 998 -19.1803 146.920 2 32 -19.0000 147.000 TC 35 998 7 138
1977030S15148 1977 10 SP EA KEITH 1977-01-31 20:00:00 TS -19.2837 147.109 30 999 bom main 10 10 P_____O___P_P_ SH121977 -19.2643 147.059 30 -1 -19.4000 147.200 20 30 999 TC -19.3363 147.076 2 31 -19.1828 147.173 TC 31 999 45 45 7 136
1977030S15148 1977 10 SP EA KEITH 1977-01-31 21:00:00 TS -19.3664 147.194 main 11 0 P_____P___P_P_ SH121977 -19.3476 147.142 30 -1 -19.4884 147.290 20 26 999 TC -19.4065 147.156 2 31 -19.2827 147.272 TC 30 1000 7 135
1977030S15148 1977 10 SP EA KEITH 1977-01-31 23:00:00 TS -19.5247 147.363 20 1002 bom main 0 0 P_____O___P_P_ SH121977 -19.5157 147.313 30 -1 -19.6000 147.400 20 20 1002 TC -19.5371 147.318 2 30 -19.4926 147.488 TC 26 1001 45 45 7 134
1977030S15148 1977 10 SP EA KEITH 1977-02-01 00:00:00 TS -19.6000 147.450 main 0 O_________O_O_ jtwc_sh SH121977 -19.6000 147.400 30 -1 20 -19.6000 147.400 1 30 -19.6000 147.600 TC 25 1002 7 132

デジタル台風データ・検索

IBTrACS Databaseについて

本データベースは、米国NOAAが公開する1842年以降の世界の熱帯低気圧のベストトラックデータアーカイブInternational Best Track Archive for Climate Stewardship (IBTrACS)を、ウェブで閲覧しやすい形式に変換したものです。

最終更新日:2021-10-25